Time;durP1;ratioP1;P1;durP2;ratioP2;P2;SDS_P1;SDS_P2;PMS_P1;PMS_P2;Temp;Humidity;BMP_temperature;BMP_pressure;BME280_temperature;BME280_humidity;BME280_pressure;Samples;Min_cycle;Max_cycle;Signal;HPM_P1;HPM_P2
2021/09/10 00:01:06;;;;;;;25.30;8.02;;;;;;;;;;4965485;28;20076;-80
2021/09/10 00:03:35;;;;;;;20.80;7.38;;;;;;;;;;4965623;28;20121;-80
2021/09/10 00:06:02;;;;;;;22.95;7.43;;;;;;;;;;4942396;28;20054;-80
2021/09/10 00:08:29;;;;;;;22.27;8.43;;;;;;;;;;4967209;28;20041;-81
2021/09/10 00:10:56;;;;;;;19.77;7.05;;;;;;;;;;4959417;28;20045;-81
2021/09/10 00:13:24;;;;;;;19.95;7.30;;;;;;;;;;4955941;28;20038;-79
2021/09/10 00:15:52;;;;;;;19.58;6.60;;;;;;;;;;4991096;28;20035;-79
2021/09/10 00:18:22;;;;;;;19.67;6.97;;;;;;;;;;4955492;28;20121;-79
2021/09/10 00:20:50;;;;;;;19.08;5.93;;;;;;;;;;4959495;28;20049;-79
2021/09/10 00:23:18;;;;;;;15.80;5.95;;;;;;;;;;4982150;28;20030;-80
2021/09/10 00:25:46;;;;;;;20.23;7.20;;;;;;;;;;4972639;28;20038;-80
2021/09/10 00:28:14;;;;;;;19.58;7.53;;;;;;;;;;4964927;28;20048;-80
2021/09/10 00:30:40;;;;;;;18.48;6.32;;;;;;;;;;4968776;28;20138;-80
2021/09/10 00:33:07;;;;;;;18.83;6.75;;;;;;;;;;4957153;28;20593;-80
2021/09/10 00:35:34;;;;;;;18.95;5.68;;;;;;;;;;4955165;28;20053;-80
2021/09/10 00:38:03;;;;;;;20.73;6.70;;;;;;;;;;4960655;28;20066;-80
2021/09/10 00:40:30;;;;;;;17.45;6.75;;;;;;;;;;4957883;28;20045;-79
2021/09/10 00:42:58;;;;;;;19.52;6.70;;;;;;;;;;4944296;28;20035;-80
2021/09/10 00:45:25;;;;;;;21.10;6.88;;;;;;;;;;4951243;28;20054;-80
2021/09/10 00:47:53;;;;;;;20.70;6.70;;;;;;;;;;4962963;28;20061;-80
2021/09/10 00:50:21;;;;;;;17.73;6.38;;;;;;;;;;4956022;28;20621;-80
2021/09/10 00:52:53;;;;;;;19.75;6.65;;;;;;;;;;4957369;28;20108;-81
2021/09/10 00:55:28;;;;;;;20.23;7.20;;;;;;;;;;4957709;28;20076;-81
2021/09/10 00:57:56;;;;;;;19.75;6.80;;;;;;;;;;4966031;28;20117;-80
2021/09/10 01:00:25;;;;;;;17.73;5.88;;;;;;;;;;4956826;28;20027;-81
2021/09/10 01:02:52;;;;;;;20.13;6.55;;;;;;;;;;4975512;28;20026;-80
2021/09/10 01:05:20;;;;;;;17.63;6.07;;;;;;;;;;4957262;28;20068;-80
2021/09/10 01:07:49;;;;;;;21.15;6.28;;;;;;;;;;4958515;28;20048;-79
2021/09/10 01:10:15;;;;;;;18.10;6.47;;;;;;;;;;4985176;28;20031;-80
2021/09/10 01:12:47;;;;;;;19.58;6.28;;;;;;;;;;4955813;28;20027;-80
2021/09/10 01:15:14;;;;;;;17.05;6.20;;;;;;;;;;4973036;28;20031;-80
2021/09/10 01:17:41;;;;;;;16.83;6.45;;;;;;;;;;4963996;28;20302;-81
2021/09/10 01:20:13;;;;;;;18.02;6.60;;;;;;;;;;4964415;28;20067;-80
2021/09/10 01:22:42;;;;;;;17.17;6.13;;;;;;;;;;4963828;28;20046;-80
2021/09/10 01:25:16;;;;;;;16.77;6.28;;;;;;;;;;4954129;28;20077;-80
2021/09/10 01:27:53;;;;;;;18.30;5.70;;;;;;;;;;4964678;28;20046;-80
2021/09/10 01:30:25;;;;;;;15.80;6.05;;;;;;;;;;4961684;28;20055;-81
2021/09/10 01:32:52;;;;;;;21.10;6.60;;;;;;;;;;4977653;28;20050;-81
2021/09/10 01:35:20;;;;;;;18.02;5.95;;;;;;;;;;4956005;28;20125;-80
2021/09/10 01:37:49;;;;;;;18.83;6.45;;;;;;;;;;4965700;28;20038;-81
2021/09/10 01:40:16;;;;;;;15.90;5.80;;;;;;;;;;4954803;28;20045;-82
2021/09/10 01:42:45;;;;;;;15.63;6.05;;;;;;;;;;4958485;28;20041;-79
2021/09/10 01:45:16;;;;;;;17.55;6.05;;;;;;;;;;4974703;28;20121;-79
2021/09/10 01:47:43;;;;;;;25.75;6.40;;;;;;;;;;4955339;28;20504;-79
2021/09/10 01:50:12;;;;;;;15.70;5.90;;;;;;;;;;4962681;28;20033;-79
2021/09/10 01:52:38;;;;;;;19.50;6.72;;;;;;;;;;4959540;28;20035;-79
2021/09/10 01:55:09;;;;;;;23.90;6.75;;;;;;;;;;4957019;28;20050;-80
2021/09/10 01:57:37;;;;;;;16.70;5.88;;;;;;;;;;4957005;28;20133;-79
2021/09/10 02:00:08;;;;;;;20.85;6.47;;;;;;;;;;4974556;28;20030;-80
2021/09/10 02:02:37;;;;;;;17.50;6.75;;;;;;;;;;4949714;28;20066;-79
2021/09/10 02:05:08;;;;;;;16.75;5.63;;;;;;;;;;4962328;28;20035;-79
2021/09/10 02:07:41;;;;;;;18.90;6.57;;;;;;;;;;4943546;28;20031;-81
2021/09/10 02:10:11;;;;;;;19.17;6.45;;;;;;;;;;4942549;28;20073;-79
2021/09/10 02:12:42;;;;;;;17.00;6.45;;;;;;;;;;4935321;28;20482;-82
2021/09/10 02:15:14;;;;;;;15.75;6.15;;;;;;;;;;4937222;28;20031;-81
2021/09/10 02:17:41;;;;;;;16.77;5.93;;;;;;;;;;4958154;28;20062;-81
2021/09/10 02:20:10;;;;;;;20.35;5.90;;;;;;;;;;4961078;28;20039;-79
2021/09/10 02:22:38;;;;;;;21.08;6.32;;;;;;;;;;4952870;28;20046;-80
2021/09/10 02:25:05;;;;;;;15.65;6.15;;;;;;;;;;4957256;28;20510;-79
2021/09/10 02:27:31;;;;;;;21.38;6.90;;;;;;;;;;4953500;28;20042;-80
2021/09/10 02:29:58;;;;;;;19.55;6.70;;;;;;;;;;4954524;28;20043;-79
2021/09/10 02:32:25;;;;;;;19.92;6.88;;;;;;;;;;4954015;28;20038;-79
2021/09/10 02:34:55;;;;;;;18.55;6.70;;;;;;;;;;4972702;28;21587;-79
2021/09/10 02:37:22;;;;;;;18.95;7.40;;;;;;;;;;4942333;28;20030;-79
2021/09/10 02:39:50;;;;;;;18.63;6.22;;;;;;;;;;4959421;28;20049;-81
2021/09/10 02:42:19;;;;;;;16.52;5.88;;;;;;;;;;4971780;28;20052;-82
2021/09/10 02:44:47;;;;;;;18.02;6.15;;;;;;;;;;4959198;28;20057;-79
2021/09/10 02:47:13;;;;;;;20.70;6.95;;;;;;;;;;4954324;28;20042;-79
2021/09/10 02:49:50;;;;;;;15.32;5.88;;;;;;;;;;4956734;28;20031;-80
2021/09/10 02:52:18;;;;;;;20.95;6.63;;;;;;;;;;4955865;28;20041;-80
2021/09/10 02:54:55;;;;;;;17.38;6.28;;;;;;;;;;4960722;28;20149;-80
2021/09/10 02:57:25;;;;;;;16.42;6.25;;;;;;;;;;4927463;28;20045;-79
2021/09/10 02:59:53;;;;;;;19.75;6.32;;;;;;;;;;4960187;28;20169;-79
2021/09/10 03:02:20;;;;;;;17.58;6.40;;;;;;;;;;4980681;28;20118;-79
2021/09/10 03:04:47;;;;;;;15.00;5.93;;;;;;;;;;4960979;28;20043;-80
2021/09/10 03:07:16;;;;;;;16.05;6.38;;;;;;;;;;4959713;28;20042;-80
2021/09/10 03:09:46;;;;;;;17.27;6.03;;;;;;;;;;4959479;28;20066;-79
2021/09/10 03:12:14;;;;;;;16.63;6.30;;;;;;;;;;4952347;28;20038;-79
2021/09/10 03:14:44;;;;;;;19.77;6.53;;;;;;;;;;4963768;28;20629;-79
2021/09/10 03:17:11;;;;;;;18.00;6.00;;;;;;;;;;4970757;28;20169;-80
2021/09/10 03:19:40;;;;;;;19.52;6.75;;;;;;;;;;4963615;28;20136;-80
2021/09/10 03:22:09;;;;;;;19.25;6.93;;;;;;;;;;4944934;28;20045;-80
2021/09/10 03:24:39;;;;;;;16.15;6.40;;;;;;;;;;4954912;28;20739;-80
2021/09/10 03:27:11;;;;;;;18.52;6.32;;;;;;;;;;4967402;28;20866;-80
2021/09/10 03:29:38;;;;;;;24.02;6.85;;;;;;;;;;4942711;28;20109;-80
2021/09/10 03:32:06;;;;;;;16.90;6.15;;;;;;;;;;4929209;28;20038;-79
2021/09/10 03:34:32;;;;;;;15.05;6.15;;;;;;;;;;4939155;28;21060;-79
2021/09/10 03:37:00;;;;;;;20.25;6.85;;;;;;;;;;4927482;28;20135;-79
2021/09/10 03:39:28;;;;;;;18.77;6.57;;;;;;;;;;4938314;28;20038;-79
2021/09/10 03:41:56;;;;;;;21.00;6.40;;;;;;;;;;4944110;28;20035;-79
2021/09/10 03:44:22;;;;;;;18.80;6.82;;;;;;;;;;4937954;28;20118;-79
2021/09/10 03:46:51;;;;;;;15.60;6.15;;;;;;;;;;4947303;28;20089;-79
2021/09/10 03:49:23;;;;;;;18.63;6.15;;;;;;;;;;4938486;28;20090;-78
2021/09/10 03:51:51;;;;;;;16.05;6.25;;;;;;;;;;4910548;28;20045;-81
2021/09/10 03:54:19;;;;;;;17.63;5.95;;;;;;;;;;4953833;28;20125;-79
2021/09/10 03:56:49;;;;;;;17.92;6.38;;;;;;;;;;4965134;28;20034;-79
2021/09/10 03:59:18;;;;;;;19.23;6.78;;;;;;;;;;4960082;28;20057;-79
2021/09/10 04:01:45;;;;;;;22.35;6.93;;;;;;;;;;4964480;28;20133;-79
2021/09/10 04:04:13;;;;;;;19.02;6.22;;;;;;;;;;4955242;28;20031;-79
2021/09/10 04:06:42;;;;;;;17.52;6.18;;;;;;;;;;4995449;28;20047;-79
2021/09/10 04:09:11;;;;;;;15.52;6.35;;;;;;;;;;4982185;28;20038;-79
2021/09/10 04:11:37;;;;;;;21.05;7.60;;;;;;;;;;4960974;28;20240;-79
2021/09/10 04:14:07;;;;;;;16.67;6.50;;;;;;;;;;4949585;28;20690;-79
2021/09/10 04:16:36;;;;;;;18.95;7.03;;;;;;;;;;4965566;28;20065;-79
2021/09/10 04:19:05;;;;;;;19.73;6.57;;;;;;;;;;4963864;28;20136;-79
2021/09/10 04:21:33;;;;;;;17.63;7.22;;;;;;;;;;4961762;28;20516;-79
2021/09/10 04:24:00;;;;;;;18.08;6.45;;;;;;;;;;4976921;28;20949;-79
2021/09/10 04:26:28;;;;;;;16.75;6.18;;;;;;;;;;4948295;28;20038;-79
2021/09/10 04:28:55;;;;;;;17.55;6.28;;;;;;;;;;4951506;28;20514;-79
2021/09/10 04:31:24;;;;;;;18.98;7.05;;;;;;;;;;4968872;28;20748;-80
2021/09/10 04:33:52;;;;;;;19.52;6.65;;;;;;;;;;4979551;28;20045;-79
2021/09/10 04:36:19;;;;;;;16.40;6.07;;;;;;;;;;4977889;28;20037;-79
2021/09/10 04:38:50;;;;;;;15.85;5.70;;;;;;;;;;4978442;28;20620;-80
2021/09/10 04:41:16;;;;;;;19.00;6.90;;;;;;;;;;4979063;28;20153;-79
2021/09/10 04:43:44;;;;;;;18.40;6.03;;;;;;;;;;4963193;28;20569;-79
2021/09/10 04:46:11;;;;;;;14.07;5.97;;;;;;;;;;4958285;28;20070;-79
2021/09/10 04:48:38;;;;;;;17.77;5.65;;;;;;;;;;4967044;28;20043;-79
2021/09/10 04:51:05;;;;;;;18.10;6.60;;;;;;;;;;4977433;28;20543;-79
2021/09/10 04:53:36;;;;;;;19.73;6.32;;;;;;;;;;4959503;28;20790;-79
2021/09/10 04:56:04;;;;;;;17.55;6.15;;;;;;;;;;4981916;28;20950;-79
2021/09/10 04:58:33;;;;;;;15.35;6.32;;;;;;;;;;4957611;28;20136;-79
2021/09/10 05:01:00;;;;;;;16.95;6.93;;;;;;;;;;4962108;28;20121;-80
2021/09/10 05:03:27;;;;;;;17.58;5.82;;;;;;;;;;4959928;28;20065;-80
2021/09/10 05:05:54;;;;;;;13.07;5.63;;;;;;;;;;4959710;28;20018;-80
2021/09/10 05:08:21;;;;;;;17.98;6.32;;;;;;;;;;4959459;28;20042;-80
2021/09/10 05:10:50;;;;;;;17.38;5.75;;;;;;;;;;4953024;28;20384;-80
2021/09/10 05:13:18;;;;;;;16.67;6.07;;;;;;;;;;4936367;28;20043;-80
2021/09/10 05:15:46;;;;;;;16.00;6.25;;;;;;;;;;4945444;28;20045;-80
2021/09/10 05:18:16;;;;;;;14.63;5.68;;;;;;;;;;4967231;28;20058;-80
2021/09/10 05:20:42;;;;;;;18.63;6.00;;;;;;;;;;4964512;28;20117;-81
2021/09/10 05:23:10;;;;;;;19.15;6.40;;;;;;;;;;4966835;28;20042;-80
2021/09/10 05:25:37;;;;;;;16.95;6.28;;;;;;;;;;4956966;28;20063;-80
2021/09/10 05:28:08;;;;;;;15.95;6.40;;;;;;;;;;4956942;28;20041;-82
2021/09/10 05:30:36;;;;;;;17.60;6.70;;;;;;;;;;4958771;28;20092;-81
2021/09/10 05:33:05;;;;;;;21.73;7.10;;;;;;;;;;4958646;28;20048;-81
2021/09/10 05:35:31;;;;;;;19.40;6.53;;;;;;;;;;4953077;28;20373;-79
2021/09/10 05:37:58;;;;;;;16.88;6.55;;;;;;;;;;4954038;28;20058;-79
2021/09/10 05:40:26;;;;;;;15.48;6.43;;;;;;;;;;4976729;28;20038;-79
2021/09/10 05:42:52;;;;;;;16.67;6.68;;;;;;;;;;4977646;28;20048;-80
2021/09/10 05:45:21;;;;;;;16.58;6.28;;;;;;;;;;4953820;28;20034;-80
2021/09/10 05:47:50;;;;;;;15.57;7.05;;;;;;;;;;4962643;28;20168;-80
2021/09/10 05:50:19;;;;;;;19.98;6.68;;;;;;;;;;4959232;28;20042;-80
2021/09/10 05:52:49;;;;;;;20.15;7.25;;;;;;;;;;4966365;28;20034;-80
2021/09/10 05:55:15;;;;;;;15.57;6.00;;;;;;;;;;4959675;28;20035;-80
2021/09/10 05:57:45;;;;;;;19.73;6.75;;;;;;;;;;4960801;28;20050;-79
2021/09/10 06:00:13;;;;;;;15.63;6.15;;;;;;;;;;4955040;28;20038;-80
2021/09/10 06:02:41;;;;;;;20.45;6.82;;;;;;;;;;4959343;28;20108;-81
2021/09/10 06:05:12;;;;;;;19.55;6.45;;;;;;;;;;4959567;28;20038;-80
2021/09/10 06:07:40;;;;;;;17.73;6.30;;;;;;;;;;4946093;28;20125;-80
2021/09/10 06:10:12;;;;;;;19.30;6.57;;;;;;;;;;4960646;28;20129;-80
2021/09/10 06:12:52;;;;;;;14.88;6.30;;;;;;;;;;4958862;28;20042;-80
2021/09/10 06:15:24;;;;;;;19.02;6.90;;;;;;;;;;4953874;28;20026;-81
2021/09/10 06:17:52;;;;;;;18.15;6.65;;;;;;;;;;4961703;28;20030;-80
2021/09/10 06:20:20;;;;;;;17.48;6.95;;;;;;;;;;4931925;28;20133;-81
2021/09/10 06:22:48;;;;;;;18.75;6.93;;;;;;;;;;4960731;28;20076;-80
2021/09/10 06:25:15;;;;;;;17.23;6.07;;;;;;;;;;4959457;28;20093;-80
2021/09/10 06:27:44;;;;;;;18.70;7.05;;;;;;;;;;4956312;28;20053;-80
2021/09/10 06:30:22;;;;;;;19.08;6.47;;;;;;;;;;4973279;28;20125;-81
2021/09/10 06:33:06;;;;;;;18.73;6.13;;;;;;;;;;4954016;28;20380;-81
2021/09/10 06:35:35;;;;;;;18.08;6.35;;;;;;;;;;4954925;28;20066;-81
2021/09/10 06:38:05;;;;;;;19.70;6.75;;;;;;;;;;4956252;28;20046;-81
2021/09/10 06:40:31;;;;;;;23.65;6.93;;;;;;;;;;4952497;28;20831;-80
2021/09/10 06:43:00;;;;;;;17.75;7.15;;;;;;;;;;4959864;28;20038;-81
2021/09/10 06:45:32;;;;;;;16.98;6.55;;;;;;;;;;4959315;28;20038;-81
2021/09/10 06:48:01;;;;;;;20.20;6.55;;;;;;;;;;4962141;28;20503;-80
2021/09/10 06:50:29;;;;;;;19.88;7.20;;;;;;;;;;4956222;28;20064;-81
2021/09/10 06:53:01;;;;;;;16.42;6.50;;;;;;;;;;4966556;28;20062;-81
2021/09/10 06:55:34;;;;;;;17.27;6.22;;;;;;;;;;4963269;28;20039;-80
2021/09/10 06:58:05;;;;;;;15.65;6.28;;;;;;;;;;4944896;28;20405;-81
2021/09/10 07:00:32;;;;;;;16.38;6.07;;;;;;;;;;4925381;28;21053;-81
2021/09/10 07:02:59;;;;;;;17.40;5.60;;;;;;;;;;4923078;28;20058;-80
2021/09/10 07:05:26;;;;;;;14.95;5.53;;;;;;;;;;4921754;28;20793;-81
2021/09/10 07:07:53;;;;;;;16.40;6.05;;;;;;;;;;4918311;28;20041;-81
2021/09/10 07:10:19;;;;;;;13.63;5.55;;;;;;;;;;4919359;28;20522;-81
2021/09/10 07:12:47;;;;;;;19.98;6.07;;;;;;;;;;4927319;28;20730;-80
2021/09/10 07:15:14;;;;;;;16.92;6.07;;;;;;;;;;4924384;28;20098;-81
2021/09/10 07:17:41;;;;;;;19.20;7.25;;;;;;;;;;4923198;28;20134;-81
2021/09/10 07:20:09;;;;;;;14.02;5.40;;;;;;;;;;4920895;28;20122;-81
2021/09/10 07:22:37;;;;;;;18.52;6.53;;;;;;;;;;4906295;28;20046;-81
2021/09/10 07:25:03;;;;;;;17.67;6.00;;;;;;;;;;4901624;29;20047;-80
2021/09/10 07:27:31;;;;;;;22.98;6.82;;;;;;;;;;4924048;28;20039;-80
2021/09/10 07:29:59;;;;;;;16.33;7.00;;;;;;;;;;4904069;28;20031;-81
2021/09/10 07:32:30;;;;;;;22.25;6.00;;;;;;;;;;4902931;28;20727;-81
2021/09/10 07:34:57;;;;;;;20.80;6.20;;;;;;;;;;4922153;28;20196;-80
2021/09/10 07:37:27;;;;;;;20.15;6.63;;;;;;;;;;4933092;28;20082;-81
2021/09/10 07:39:58;;;;;;;18.02;5.95;;;;;;;;;;4936561;28;20027;-80
2021/09/10 07:42:27;;;;;;;17.23;6.15;;;;;;;;;;4922857;28;20054;-80
2021/09/10 07:44:54;;;;;;;19.27;5.60;;;;;;;;;;4929171;28;20031;-80
2021/09/10 07:47:21;;;;;;;16.42;6.30;;;;;;;;;;4927574;28;20038;-81
2021/09/10 07:49:55;;;;;;;18.48;5.95;;;;;;;;;;4950760;28;20034;-79
2021/09/10 07:52:23;;;;;;;17.20;5.97;;;;;;;;;;4961005;28;20038;-80
2021/09/10 07:54:50;;;;;;;16.98;5.30;;;;;;;;;;4964727;28;20423;-80
2021/09/10 07:57:21;;;;;;;15.05;5.97;;;;;;;;;;4938434;28;20062;-80
2021/09/10 07:59:55;;;;;;;15.80;5.38;;;;;;;;;;4949132;28;20035;-81
2021/09/10 08:02:29;;;;;;;16.58;5.22;;;;;;;;;;4961004;28;20079;-80
2021/09/10 08:05:01;;;;;;;16.55;5.30;;;;;;;;;;4964969;28;20549;-80
2021/09/10 08:07:29;;;;;;;15.32;5.97;;;;;;;;;;4952394;28;20037;-80
2021/09/10 08:09:57;;;;;;;13.55;6.00;;;;;;;;;;4945484;28;20035;-80
2021/09/10 08:12:27;;;;;;;15.68;5.40;;;;;;;;;;4970000;28;20049;-79
2021/09/10 08:15:00;;;;;;;13.98;5.13;;;;;;;;;;4983056;28;20137;-79
2021/09/10 08:17:26;;;;;;;14.55;5.32;;;;;;;;;;4987330;28;20034;-79
2021/09/10 08:19:54;;;;;;;14.07;4.90;;;;;;;;;;4966323;28;20141;-79
2021/09/10 08:22:21;;;;;;;12.95;4.80;;;;;;;;;;4964558;28;20054;-79
2021/09/10 08:24:49;;;;;;;14.50;4.43;;;;;;;;;;4960157;28;20491;-80
2021/09/10 08:27:20;;;;;;;13.15;4.75;;;;;;;;;;4960331;28;20027;-79
2021/09/10 08:29:47;;;;;;;14.80;5.10;;;;;;;;;;4967977;28;20030;-81
2021/09/10 08:32:16;;;;;;;15.57;5.40;;;;;;;;;;4956933;28;20088;-80
2021/09/10 08:34:55;;;;;;;10.70;3.88;;;;;;;;;;4972742;28;20058;-85
2021/09/10 08:37:22;;;;;;;11.73;3.97;;;;;;;;;;4963924;28;20070;-85
2021/09/10 08:39:51;;;;;;;16.65;4.78;;;;;;;;;;4963191;28;20039;-85
2021/09/10 08:42:18;;;;;;;12.38;4.38;;;;;;;;;;4968782;28;20054;-84
2021/09/10 08:44:46;;;;;;;14.35;4.50;;;;;;;;;;4969215;28;20101;-85
2021/09/10 08:47:14;;;;;;;12.18;4.50;;;;;;;;;;4967091;28;20085;-85
2021/09/10 08:49:45;;;;;;;11.70;4.95;;;;;;;;;;4996940;28;20496;-85
2021/09/10 08:52:14;;;;;;;14.18;4.45;;;;;;;;;;4996407;28;20025;-93
2021/09/10 08:54:45;;;;;;;13.23;5.35;;;;;;;;;;5004392;28;20029;-93
2021/09/10 08:57:23;;;;;;;12.10;4.70;;;;;;;;;;5002552;28;20057;-92
2021/09/10 09:03:07;;;;;;;10.60;3.80;;;;;;;;;;4996242;28;20045;-93
2021/09/10 09:05:41;;;;;;;14.23;4.40;;;;;;;;;;5003308;28;20033;-92
2021/09/10 09:08:12;;;;;;;13.35;4.70;;;;;;;;;;4986745;28;20056;-93
2021/09/10 09:10:57;;;;;;;11.75;4.43;;;;;;;;;;4976759;28;20031;-93
2021/09/10 09:13:33;;;;;;;12.38;4.28;;;;;;;;;;4972881;28;20061;-92
2021/09/10 09:16:19;;;;;;;12.65;4.30;;;;;;;;;;4969874;28;20089;-93
2021/09/10 09:19:02;;;;;;;13.10;4.63;;;;;;;;;;4962583;28;20034;-92
2021/09/10 09:21:30;;;;;;;11.73;4.50;;;;;;;;;;5002762;28;20039;-92
2021/09/10 09:24:00;;;;;;;13.07;4.28;;;;;;;;;;5015630;28;20026;-92
2021/09/10 09:26:29;;;;;;;12.57;3.75;;;;;;;;;;4975608;28;20442;-92
2021/09/10 09:29:05;;;;;;;14.25;4.85;;;;;;;;;;4982018;28;20030;-92
2021/09/10 09:31:34;;;;;;;15.55;4.95;;;;;;;;;;4975561;28;20953;-92
2021/09/10 09:34:03;;;;;;;13.63;4.13;;;;;;;;;;4980023;28;20061;-93
2021/09/10 09:36:29;;;;;;;13.30;4.28;;;;;;;;;;4964210;28;20034;-91
2021/09/10 09:39:00;;;;;;;13.05;4.25;;;;;;;;;;4975108;28;20137;-92
2021/09/10 09:41:29;;;;;;;17.95;4.50;;;;;;;;;;4974940;28;20064;-92
2021/09/10 09:44:17;;;;;;;14.73;4.35;;;;;;;;;;4981629;28;20237;-93
2021/09/10 09:46:55;;;;;;;13.98;4.82;;;;;;;;;;4973967;28;20270;-92
2021/09/10 09:49:24;;;;;;;11.55;4.00;;;;;;;;;;4967524;28;20375;-91
2021/09/10 09:52:06;;;;;;;12.75;4.65;;;;;;;;;;4973369;28;20042;-91
2021/09/10 09:54:34;;;;;;;12.77;4.57;;;;;;;;;;4948830;28;20919;-92
2021/09/10 09:57:03;;;;;;;13.02;4.28;;;;;;;;;;4974986;28;20232;-92
2021/09/10 09:59:33;;;;;;;15.57;4.78;;;;;;;;;;4989710;28;20060;-91
2021/09/10 10:02:12;;;;;;;13.23;4.03;;;;;;;;;;4969321;28;20400;-94
2021/09/10 10:04:38;;;;;;;13.77;4.40;;;;;;;;;;4960972;28;20043;-93
2021/09/10 10:07:07;;;;;;;13.30;4.40;;;;;;;;;;4990172;28;20026;-93
2021/09/10 10:09:37;;;;;;;14.73;4.05;;;;;;;;;;4979065;28;20030;-93
2021/09/10 10:12:05;;;;;;;10.50;3.80;;;;;;;;;;4994666;28;20047;-92
2021/09/10 10:14:43;;;;;;;11.20;4.10;;;;;;;;;;4974474;28;20372;-92
2021/09/10 10:17:28;;;;;;;11.88;3.60;;;;;;;;;;4996715;28;20912;-94
2021/09/10 10:19:58;;;;;;;13.15;4.20;;;;;;;;;;4992803;28;20045;-92
2021/09/10 10:22:33;;;;;;;14.18;4.25;;;;;;;;;;4974642;28;20096;-93
2021/09/10 10:25:00;;;;;;;10.65;3.85;;;;;;;;;;4977925;28;20041;-93
2021/09/10 10:27:35;;;;;;;11.43;2.97;;;;;;;;;;4971665;28;20121;-93
2021/09/10 10:30:09;;;;;;;10.85;3.50;;;;;;;;;;4979672;28;20672;-94
2021/09/10 10:32:38;;;;;;;9.95;3.50;;;;;;;;;;4947807;28;20105;-91
2021/09/10 10:35:17;;;;;;;11.32;3.47;;;;;;;;;;4946969;28;20039;-93
2021/09/10 10:37:49;;;;;;;12.60;3.58;;;;;;;;;;4957640;28;20121;-92
2021/09/10 10:40:30;;;;;;;12.88;3.30;;;;;;;;;;4933601;28;20038;-87
2021/09/10 10:43:03;;;;;;;9.82;3.03;;;;;;;;;;4939996;28;20368;-79
2021/09/10 10:45:41;;;;;;;11.10;2.95;;;;;;;;;;4916724;28;20035;-82
2021/09/10 10:48:26;;;;;;;16.73;3.35;;;;;;;;;;4950610;28;20133;-93
2021/09/10 10:50:52;;;;;;;12.87;3.03;;;;;;;;;;4931592;28;20397;-81
2021/09/10 10:53:18;;;;;;;14.15;3.30;;;;;;;;;;4937547;28;20280;-80
2021/09/10 10:55:46;;;;;;;13.77;3.28;;;;;;;;;;4924563;28;20039;-80
2021/09/10 10:58:35;;;;;;;15.00;3.22;;;;;;;;;;4923432;28;20070;-80
2021/09/10 11:01:04;;;;;;;9.30;2.92;;;;;;;;;;4938893;28;20086;-80
2021/09/10 11:03:38;;;;;;;12.38;3.10;;;;;;;;;;4930822;28;21117;-80
2021/09/10 11:06:24;;;;;;;11.32;2.83;;;;;;;;;;4925521;28;20037;-81
2021/09/10 11:08:55;;;;;;;9.85;2.60;;;;;;;;;;4924748;28;20035;-81
2021/09/10 11:11:27;;;;;;;12.35;3.10;;;;;;;;;;4932589;28;20118;-81
2021/09/10 11:13:57;;;;;;;10.23;3.20;;;;;;;;;;4931906;28;20047;-83
2021/09/10 11:16:33;;;;;;;11.00;3.20;;;;;;;;;;4909229;28;20580;-81
2021/09/10 11:19:01;;;;;;;12.18;3.08;;;;;;;;;;4970954;28;20034;-81
2021/09/10 11:21:31;;;;;;;9.60;2.90;;;;;;;;;;4977133;28;20146;-80
2021/09/10 11:24:09;;;;;;;11.38;3.00;;;;;;;;;;4962919;28;20041;-82
2021/09/10 11:26:36;;;;;;;9.75;2.85;;;;;;;;;;4959277;28;20133;-82
2021/09/10 11:29:11;;;;;;;17.40;3.40;;;;;;;;;;4979315;28;20038;-80
2021/09/10 11:31:37;;;;;;;13.20;3.65;;;;;;;;;;4963682;28;20051;-80
2021/09/10 11:34:04;;;;;;;12.93;3.58;;;;;;;;;;4959585;28;20058;-81
2021/09/10 11:36:32;;;;;;;15.95;3.40;;;;;;;;;;4952701;28;21555;-81
2021/09/10 11:39:00;;;;;;;15.25;3.38;;;;;;;;;;4960342;28;20117;-81
2021/09/10 11:41:28;;;;;;;18.48;3.75;;;;;;;;;;4956363;28;20061;-81
2021/09/10 11:43:54;;;;;;;14.43;3.60;;;;;;;;;;4964760;28;20050;-85
2021/09/10 11:46:21;;;;;;;12.48;3.53;;;;;;;;;;4963519;28;20046;-85
2021/09/10 11:48:50;;;;;;;12.93;3.45;;;;;;;;;;4954810;28;20030;-85
2021/09/10 11:51:35;;;;;;;11.57;3.28;;;;;;;;;;4960525;28;20085;-85
2021/09/10 11:54:02;;;;;;;11.95;3.20;;;;;;;;;;4963008;28;20027;-86
2021/09/10 11:56:32;;;;;;;12.02;3.40;;;;;;;;;;4959979;28;20050;-85
2021/09/10 11:58:59;;;;;;;13.30;3.35;;;;;;;;;;4956176;28;20049;-86
2021/09/10 12:01:28;;;;;;;11.02;3.05;;;;;;;;;;4956235;28;20045;-84
2021/09/10 12:04:02;;;;;;;11.70;3.00;;;;;;;;;;4950643;28;20049;-85
2021/09/10 12:06:31;;;;;;;10.85;2.80;;;;;;;;;;4977879;28;20043;-85
2021/09/10 12:09:08;;;;;;;9.73;2.70;;;;;;;;;;4962486;28;20027;-84
2021/09/10 12:11:37;;;;;;;10.23;2.92;;;;;;;;;;4967870;28;20064;-85
2021/09/10 12:14:14;;;;;;;10.32;2.63;;;;;;;;;;4985393;28;20070;-84
2021/09/10 12:16:44;;;;;;;9.25;3.08;;;;;;;;;;4967195;28;20129;-85
2021/09/10 12:19:11;;;;;;;10.93;3.20;;;;;;;;;;4968156;28;20046;-85
2021/09/10 12:21:38;;;;;;;9.75;3.25;;;;;;;;;;4964659;28;20043;-85
2021/09/10 12:24:18;;;;;;;11.88;3.10;;;;;;;;;;4977186;28;20121;-86
2021/09/10 12:26:59;;;;;;;12.38;3.22;;;;;;;;;;4973809;28;20089;-85
2021/09/10 12:29:30;;;;;;;12.57;3.60;;;;;;;;;;4965569;28;20495;-84
2021/09/10 12:32:00;;;;;;;8.60;2.90;;;;;;;;;;4968268;28;20037;-85
2021/09/10 12:34:26;;;;;;;9.77;2.95;;;;;;;;;;4969032;28;20042;-85
2021/09/10 12:37:00;;;;;;;10.95;3.35;;;;;;;;;;5003699;28;20037;-85
2021/09/10 12:39:33;;;;;;;10.25;3.25;;;;;;;;;;4957459;28;20054;-82
2021/09/10 12:42:01;;;;;;;11.50;3.15;;;;;;;;;;4959480;28;20042;-82
2021/09/10 12:44:30;;;;;;;11.43;3.47;;;;;;;;;;4967530;28;20034;-83
2021/09/10 12:47:01;;;;;;;10.73;3.00;;;;;;;;;;4954350;28;20035;-81
2021/09/10 12:49:27;;;;;;;8.77;3.17;;;;;;;;;;4949257;28;20077;-82
2021/09/10 12:51:54;;;;;;;12.45;3.00;;;;;;;;;;4949958;28;20081;-81
2021/09/10 12:54:22;;;;;;;9.52;2.95;;;;;;;;;;4956147;28;20039;-83
2021/09/10 12:56:50;;;;;;;10.32;3.00;;;;;;;;;;4961741;28;21043;-82
2021/09/10 13:02:12;;;;;;;9.90;2.78;;;;;;;;;;4962749;28;20110;-83
2021/09/10 13:04:41;;;;;;;9.65;2.60;;;;;;;;;;4959596;28;20240;-82
2021/09/10 13:07:09;;;;;;;10.38;3.30;;;;;;;;;;4963493;28;20425;-83
2021/09/10 13:09:36;;;;;;;11.90;2.95;;;;;;;;;;4945457;28;20065;-82
2021/09/10 13:12:08;;;;;;;10.90;2.85;;;;;;;;;;4942142;28;20042;-82
2021/09/10 13:14:37;;;;;;;8.13;2.70;;;;;;;;;;4965960;28;20125;-82
2021/09/10 13:17:05;;;;;;;9.18;2.88;;;;;;;;;;4954326;28;20047;-81
2021/09/10 13:19:33;;;;;;;9.82;2.65;;;;;;;;;;4950730;28;20167;-82
2021/09/10 13:22:01;;;;;;;9.25;2.70;;;;;;;;;;4960101;28;20058;-81
2021/09/10 13:24:31;;;;;;;10.52;2.90;;;;;;;;;;4934799;28;20097;-82
2021/09/10 13:26:58;;;;;;;9.65;2.85;;;;;;;;;;4964088;28;20018;-82
2021/09/10 13:29:30;;;;;;;10.07;2.88;;;;;;;;;;4935937;28;20180;-82
2021/09/10 13:32:00;;;;;;;10.13;2.65;;;;;;;;;;4950764;28;20893;-83
2021/09/10 13:34:28;;;;;;;10.75;2.70;;;;;;;;;;4950727;28;20030;-83
2021/09/10 13:36:56;;;;;;;9.50;2.72;;;;;;;;;;4960249;28;20038;-82
2021/09/10 13:39:23;;;;;;;7.80;2.67;;;;;;;;;;4943233;28;20058;-83
2021/09/10 13:41:53;;;;;;;10.35;2.92;;;;;;;;;;4963626;28;20043;-83
2021/09/10 13:44:21;;;;;;;9.20;2.63;;;;;;;;;;4957095;28;20636;-82
2021/09/10 13:46:50;;;;;;;8.20;2.55;;;;;;;;;;4965957;28;20038;-82
2021/09/10 13:49:16;;;;;;;10.65;2.80;;;;;;;;;;4963088;28;20030;-82
2021/09/10 13:51:43;;;;;;;9.52;2.67;;;;;;;;;;4978116;28;20053;-82
2021/09/10 13:54:11;;;;;;;10.60;2.90;;;;;;;;;;4977148;28;20173;-81
2021/09/10 13:56:39;;;;;;;12.70;2.67;;;;;;;;;;4971043;28;20042;-83
2021/09/10 13:59:10;;;;;;;7.80;2.47;;;;;;;;;;4977437;28;20186;-82
2021/09/10 14:01:38;;;;;;;7.93;2.08;;;;;;;;;;4954635;28;20062;-83
2021/09/10 14:04:06;;;;;;;9.90;2.45;;;;;;;;;;4967702;28;20070;-82
2021/09/10 14:06:36;;;;;;;12.15;2.80;;;;;;;;;;4964980;28;20034;-82
2021/09/10 14:09:04;;;;;;;8.00;2.60;;;;;;;;;;4981511;28;20042;-83
2021/09/10 14:11:34;;;;;;;10.98;2.60;;;;;;;;;;4984981;28;20038;-82
2021/09/10 14:14:05;;;;;;;9.93;2.85;;;;;;;;;;4961272;28;20141;-81
2021/09/10 14:16:35;;;;;;;10.73;2.53;;;;;;;;;;4953955;28;22194;-83
2021/09/10 14:19:03;;;;;;;9.95;2.53;;;;;;;;;;4958227;28;20269;-82
2021/09/10 14:21:29;;;;;;;8.82;2.40;;;;;;;;;;4971341;28;20037;-83
2021/09/10 14:23:57;;;;;;;8.57;2.47;;;;;;;;;;4942369;28;20154;-84
2021/09/10 14:26:26;;;;;;;8.65;2.50;;;;;;;;;;4938899;28;20038;-84
2021/09/10 14:28:54;;;;;;;9.90;2.60;;;;;;;;;;4959456;28;20076;-84
2021/09/10 14:31:20;;;;;;;8.23;2.70;;;;;;;;;;4953726;28;20285;-84
2021/09/10 14:33:48;;;;;;;9.50;3.10;;;;;;;;;;4974892;28;20038;-84
2021/09/10 14:36:18;;;;;;;8.88;2.60;;;;;;;;;;4945623;28;20138;-83
2021/09/10 14:38:44;;;;;;;11.02;2.63;;;;;;;;;;4923565;28;20040;-83
2021/09/10 14:41:11;;;;;;;7.88;2.47;;;;;;;;;;4950303;28;20062;-82
2021/09/10 14:43:41;;;;;;;15.05;2.72;;;;;;;;;;4942709;28;20054;-82
2021/09/10 14:46:27;;;;;;;8.40;2.42;;;;;;;;;;4941461;28;20303;-81
2021/09/10 14:48:56;;;;;;;9.70;2.35;;;;;;;;;;4943706;28;20049;-84
2021/09/10 14:51:25;;;;;;;9.57;2.35;;;;;;;;;;4943540;28;20042;-84